createdAt,value
2024-02-15T00:00:28.528Z,73.54
2024-02-15T00:02:31.930Z,73.62
2024-02-15T00:04:35.569Z,73.68
2024-02-15T00:06:39.833Z,73.92
2024-02-15T00:08:42.799Z,73.82
2024-02-15T00:10:47.214Z,73.73
2024-02-15T00:12:52.206Z,73.73
2024-02-15T00:14:54.669Z,74.01
2024-02-15T00:16:57.996Z,74.20
2024-02-15T00:19:01.554Z,73.78
2024-02-15T00:21:05.054Z,74.51
2024-02-15T00:23:09.360Z,74.33
2024-02-15T00:25:12.595Z,74.41
2024-02-15T00:27:16.515Z,74.05
2024-02-15T00:29:19.520Z,74.18
2024-02-15T00:31:22.430Z,74.19
2024-02-15T00:33:25.322Z,74.10
2024-02-15T00:35:28.785Z,73.80
2024-02-15T00:37:32.027Z,73.77
2024-02-15T00:39:36.176Z,73.97
2024-02-15T00:41:43.214Z,74.17
2024-02-15T00:43:46.457Z,74.36
2024-02-15T00:45:49.561Z,74.50
2024-02-15T00:47:51.547Z,74.56
2024-02-15T00:49:54.656Z,74.80
2024-02-15T00:51:57.574Z,74.85
2024-02-15T00:53:59.501Z,75.19
2024-02-15T00:56:04.121Z,75.31
2024-02-15T00:58:07.031Z,75.29
2024-02-15T01:00:11.319Z,75.25
2024-02-15T01:02:13.883Z,75.40
2024-02-15T01:04:17.555Z,76.01
2024-02-15T01:06:20.502Z,76.10
2024-02-15T01:08:23.417Z,76.35
2024-02-15T01:10:27.041Z,76.57
2024-02-15T01:12:31.293Z,77.04
2024-02-15T01:14:34.463Z,77.24
2024-02-15T01:16:37.955Z,77.21
2024-02-15T01:18:41.059Z,77.77
2024-02-15T01:20:44.088Z,77.56
2024-02-15T01:22:46.945Z,77.77
2024-02-15T01:24:50.064Z,77.77
2024-02-15T01:26:52.882Z,77.77
2024-02-15T01:28:57.429Z,78.17
2024-02-15T01:31:00.309Z,78.09
2024-02-15T01:33:03.303Z,77.88
2024-02-15T01:35:05.818Z,78.19
2024-02-15T01:37:08.696Z,78.19
2024-02-15T01:39:12.086Z,78.03
2024-02-15T01:41:15.070Z,78.12
2024-02-15T01:43:18.134Z,78.16
2024-02-15T01:45:22.815Z,78.32
2024-02-15T01:47:25.693Z,78.66
2024-02-15T01:49:30.190Z,78.97
2024-02-15T01:51:34.575Z,78.98
2024-02-15T01:53:37.686Z,79.10
2024-02-15T01:55:41.809Z,79.29
2024-02-15T01:57:46.796Z,79.65
2024-02-15T01:59:52.930Z,79.61
2024-02-15T02:02:02.206Z,79.76
2024-02-15T02:04:05.590Z,79.85
2024-02-15T02:06:10.084Z,79.76
2024-02-15T02:08:13.188Z,80.09
2024-02-15T02:10:16.734Z,79.83
2024-02-15T02:12:20.336Z,80.09
2024-02-15T02:14:23.620Z,80.28
2024-02-15T02:16:26.302Z,80.29
2024-02-15T02:18:30.652Z,80.29
2024-02-15T02:20:32.684Z,80.22
2024-02-15T02:22:37.547Z,80.20
2024-02-15T02:24:46.509Z,80.36
2024-02-15T02:26:51.553Z,80.11
2024-02-15T02:28:54.539Z,80.17
2024-02-15T02:30:57.737Z,79.84
2024-02-15T02:33:01.146Z,80.30
2024-02-15T02:35:04.650Z,80.11
2024-02-15T02:37:08.958Z,79.94
2024-02-15T02:39:11.831Z,80.19
2024-02-15T02:41:14.704Z,80.17
2024-02-15T02:43:18.895Z,80.06
2024-02-15T02:45:23.901Z,80.07
2024-02-15T02:47:27.306Z,79.72
2024-02-15T02:49:30.178Z,79.91
2024-02-15T02:51:33.089Z,80.21
2024-02-15T02:53:36.781Z,80.08
2024-02-15T02:55:39.637Z,80.07
2024-02-15T02:57:42.686Z,80.21
2024-02-15T02:59:48.269Z,80.39
2024-02-15T03:01:51.127Z,80.08
2024-02-15T03:03:56.291Z,80.30
2024-02-15T03:05:59.803Z,80.24
2024-02-15T03:08:01.698Z,80.32
2024-02-15T03:10:05.832Z,80.36
2024-02-15T03:12:10.873Z,80.07
2024-02-15T03:14:14.111Z,79.95
2024-02-15T03:16:17.800Z,80.27
2024-02-15T03:18:20.655Z,80.16
2024-02-15T03:20:25.257Z,80.09
2024-02-15T03:22:30.360Z,80.11
2024-02-15T03:24:33.211Z,79.95
2024-02-15T03:26:38.286Z,79.85
2024-02-15T03:28:41.290Z,79.74
2024-02-15T03:30:44.421Z,79.76
2024-02-15T03:32:49.449Z,79.67
2024-02-15T03:34:52.620Z,79.62
2024-02-15T03:36:55.627Z,79.73
2024-02-15T03:38:57.558Z,80.06
2024-02-15T03:41:00.842Z,80.18
2024-02-15T03:43:07.801Z,80.21
2024-02-15T03:45:12.146Z,80.43
2024-02-15T03:47:16.031Z,80.45
2024-02-15T03:49:20.314Z,80.43
2024-02-15T03:51:25.553Z,80.33
2024-02-15T03:53:31.380Z,80.47
2024-02-15T03:55:36.424Z,80.74
2024-02-15T03:57:41.988Z,80.47
2024-02-15T03:59:47.108Z,80.41
2024-02-15T04:01:50.036Z,79.97
2024-02-15T04:03:53.053Z,80.45
2024-02-15T04:05:57.429Z,79.85
2024-02-15T04:08:03.373Z,80.11
2024-02-15T04:10:07.612Z,80.17
2024-02-15T04:12:10.982Z,79.92
2024-02-15T04:14:13.786Z,79.84
2024-02-15T04:16:15.706Z,79.52
2024-02-15T04:18:18.532Z,79.53
2024-02-15T04:20:22.546Z,79.04
2024-02-15T04:22:26.747Z,78.81
2024-02-15T04:24:30.834Z,78.87
2024-02-15T04:26:34.746Z,79.15
2024-02-15T04:28:37.628Z,79.00
2024-02-15T04:30:41.684Z,79.19
2024-02-15T04:32:44.728Z,78.94
2024-02-15T04:34:48.266Z,78.86
2024-02-15T04:36:52.081Z,78.92
2024-02-15T04:38:56.296Z,78.77
2024-02-15T04:41:01.344Z,78.71
2024-02-15T04:43:05.393Z,78.28
2024-02-15T04:45:09.767Z,78.50
2024-02-15T04:47:12.794Z,78.69
2024-02-15T04:49:15.434Z,78.60
2024-02-15T04:51:21.004Z,78.86
2024-02-15T04:53:23.882Z,78.87
2024-02-15T04:55:28.286Z,78.76
2024-02-15T04:57:31.308Z,78.83
2024-02-15T04:59:34.087Z,78.79
2024-02-15T05:01:37.702Z,78.37
2024-02-15T05:03:40.559Z,78.49
2024-02-15T05:05:42.958Z,78.46
2024-02-15T05:07:46.070Z,78.11
2024-02-15T05:09:48.955Z,77.99
2024-02-15T05:11:54.035Z,78.12
2024-02-15T05:13:56.789Z,77.65
2024-02-15T05:15:59.711Z,78.14
2024-02-15T05:18:03.310Z,78.31
2024-02-15T05:20:12.056Z,78.16
2024-02-15T05:22:16.454Z,78.15
2024-02-15T05:24:21.199Z,77.95
2024-02-15T05:26:24.637Z,77.98
2024-02-15T05:28:30.905Z,78.11
2024-02-15T05:30:34.738Z,77.93
2024-02-15T05:32:42.601Z,78.42
2024-02-15T05:34:45.889Z,78.55
2024-02-15T05:36:49.361Z,78.54
2024-02-15T05:38:53.357Z,78.33
2024-02-15T05:40:56.574Z,78.63
2024-02-15T05:43:00.103Z,78.71
2024-02-15T05:45:34.543Z,78.69
2024-02-15T05:47:37.773Z,79.04
2024-02-15T05:49:40.527Z,78.95
2024-02-15T05:51:45.300Z,78.90
2024-02-15T05:53:48.409Z,78.84
2024-02-15T05:55:51.208Z,78.91
2024-02-15T05:57:54.559Z,78.73
2024-02-15T06:00:04.332Z,78.92
2024-02-15T06:02:09.298Z,78.57
2024-02-15T06:04:12.140Z,78.39
2024-02-15T06:06:15.207Z,78.22
2024-02-15T06:08:18.639Z,77.98
2024-02-15T06:10:21.365Z,77.99
2024-02-15T06:12:23.165Z,77.81
2024-02-15T06:14:26.436Z,77.63
2024-02-15T06:16:29.444Z,77.62
2024-02-15T06:18:34.488Z,77.53
2024-02-15T06:20:37.587Z,77.70
2024-02-15T06:22:40.854Z,77.48
2024-02-15T06:24:44.017Z,77.50
2024-02-15T06:26:48.833Z,78.01
2024-02-15T06:29:17.778Z,78.02
2024-02-15T06:31:40.733Z,78.42
2024-02-15T06:34:03.449Z,78.20
2024-02-15T06:36:25.176Z,78.58
2024-02-15T06:38:45.322Z,78.44
2024-02-15T06:40:48.200Z,78.00
2024-02-15T06:42:51.039Z,78.18
2024-02-15T06:44:53.826Z,77.84
2024-02-15T06:46:55.583Z,77.93
2024-02-15T06:48:59.926Z,77.68
2024-02-15T06:51:04.319Z,77.70
2024-02-15T06:53:07.189Z,77.76
2024-02-15T06:55:13.056Z,77.67
2024-02-15T06:57:17.026Z,77.76
2024-02-15T06:59:20.536Z,77.50
2024-02-15T07:01:26.318Z,77.68
2024-02-15T07:03:31.047Z,77.65
2024-02-15T07:05:35.328Z,77.63
2024-02-15T07:07:40.106Z,78.07
2024-02-15T07:09:42.886Z,78.16
2024-02-15T07:11:51.370Z,77.95
2024-02-15T07:13:56.176Z,78.21
2024-02-15T07:15:59.063Z,78.16
2024-02-15T07:18:02.289Z,78.47
2024-02-15T07:20:06.873Z,78.47
2024-02-15T07:22:10.598Z,78.40
2024-02-15T07:24:13.652Z,78.47
2024-02-15T07:26:16.401Z,78.19
2024-02-15T07:28:20.385Z,77.93
2024-02-15T07:30:26.128Z,77.88
2024-02-15T07:32:29.340Z,77.51
2024-02-15T07:34:32.189Z,77.23
2024-02-15T07:36:34.929Z,77.07
2024-02-15T07:38:39.052Z,76.89
2024-02-15T07:40:40.938Z,76.76
2024-02-15T07:42:43.992Z,76.65
2024-02-15T07:44:46.763Z,76.35
2024-02-15T07:46:51.501Z,76.14
2024-02-15T07:48:54.409Z,75.92
2024-02-15T07:50:59.481Z,75.94
2024-02-15T07:53:02.230Z,75.53
2024-02-15T07:55:10.050Z,75.83
2024-02-15T07:57:13.171Z,75.42
2024-02-15T07:59:17.842Z,74.95
2024-02-15T08:01:22.511Z,75.00
2024-02-15T08:03:26.076Z,74.68
2024-02-15T08:05:29.041Z,74.22
2024-02-15T08:07:35.838Z,74.64
2024-02-15T08:09:41.976Z,74.44
2024-02-15T08:11:47.837Z,74.00
2024-02-15T08:13:55.575Z,74.02
2024-02-15T08:15:58.707Z,73.69
2024-02-15T08:18:06.256Z,73.18
2024-02-15T08:20:10.818Z,73.40
2024-02-15T08:22:13.616Z,73.32
2024-02-15T08:24:15.357Z,73.96
2024-02-15T08:26:18.813Z,74.31
2024-02-15T08:28:25.590Z,74.10
2024-02-15T08:30:28.898Z,74.38
2024-02-15T08:32:31.804Z,74.46
2024-02-15T08:34:35.272Z,73.63
2024-02-15T08:36:38.198Z,74.07
2024-02-15T08:38:42.502Z,73.73
2024-02-15T08:40:46.903Z,73.31
2024-02-15T08:42:49.721Z,73.29
2024-02-15T08:44:54.121Z,73.20
2024-02-15T08:46:57.551Z,73.55
2024-02-15T08:51:07.078Z,73.72
2024-02-15T08:53:10.067Z,73.13
2024-02-15T08:55:15.522Z,73.33
2024-02-15T08:57:20.337Z,73.09
2024-02-15T08:59:23.300Z,73.17
2024-02-15T09:01:27.423Z,72.92
2024-02-15T09:03:29.363Z,72.49
2024-02-15T09:05:32.191Z,72.15
2024-02-15T09:07:35.026Z,72.14
2024-02-15T09:09:37.843Z,71.62
2024-02-15T09:11:40.678Z,71.24
2024-02-15T09:13:43.486Z,71.25
2024-02-15T09:15:48.433Z,70.99
2024-02-15T09:17:52.048Z,70.29
2024-02-15T09:19:55.993Z,69.30
2024-02-15T09:21:58.890Z,69.49
2024-02-15T09:24:01.633Z,68.79
2024-02-15T09:26:05.233Z,68.85
2024-02-15T09:28:08.169Z,68.48
2024-02-15T09:30:13.145Z,68.15
2024-02-15T09:32:16.082Z,67.25
2024-02-15T09:34:20.331Z,66.71
2024-02-15T09:36:22.314Z,66.94
2024-02-15T09:38:26.363Z,66.31
2024-02-15T09:40:30.915Z,65.39
2024-02-15T09:42:35.796Z,64.59
2024-02-15T09:44:47.659Z,64.36
2024-02-15T09:46:58.675Z,64.72
2024-02-15T09:49:01.888Z,64.14
2024-02-15T09:51:07.115Z,64.00
2024-02-15T09:53:10.407Z,63.47
2024-02-15T09:55:14.307Z,63.47
2024-02-15T09:57:19.278Z,63.13
2024-02-15T09:59:22.433Z,62.22
2024-02-15T10:01:27.162Z,61.50
2024-02-15T10:03:32.433Z,61.40
2024-02-15T10:05:35.432Z,61.38
2024-02-15T10:07:39.826Z,61.96
2024-02-15T10:09:44.049Z,62.10
2024-02-15T10:11:57.881Z,61.19
2024-02-15T10:14:12.625Z,61.34
2024-02-15T10:16:18.217Z,61.04
2024-02-15T10:18:23.525Z,60.97
2024-02-15T10:20:27.232Z,60.46
2024-02-15T10:22:30.144Z,60.39
2024-02-15T10:24:33.338Z,59.97
2024-02-15T10:26:37.371Z,59.81
2024-02-15T10:28:40.377Z,60.09
2024-02-15T10:30:46.361Z,59.78
2024-02-15T10:32:50.464Z,59.06
2024-02-15T10:34:54.941Z,59.24
2024-02-15T10:37:12.218Z,58.64
2024-02-15T10:39:18.823Z,58.29
2024-02-15T10:41:24.000Z,57.40
2024-02-15T10:43:27.197Z,57.56
2024-02-15T10:45:31.935Z,56.58
2024-02-15T10:47:38.175Z,56.23
2024-02-15T10:49:44.374Z,56.27
2024-02-15T10:51:57.461Z,55.95
2024-02-15T10:54:04.633Z,55.09
2024-02-15T10:56:20.348Z,55.08
2024-02-15T10:58:30.395Z,54.76
2024-02-15T11:00:38.519Z,54.74
2024-02-15T11:02:46.301Z,55.59
2024-02-15T11:04:52.125Z,54.93
2024-02-15T11:06:57.643Z,54.78
2024-02-15T11:09:01.352Z,53.86
2024-02-15T11:11:06.155Z,53.56
2024-02-15T11:13:10.002Z,53.41
2024-02-15T11:15:14.533Z,52.86
2024-02-15T11:17:49.629Z,52.35
2024-02-15T11:19:53.795Z,51.31
2024-02-15T11:21:58.064Z,51.39
2024-02-15T11:24:30.580Z,51.20
2024-02-15T11:26:49.441Z,51.22
2024-02-15T11:28:52.120Z,50.76
2024-02-15T11:30:58.247Z,50.56
2024-02-15T11:33:01.165Z,49.84
2024-02-15T11:35:12.505Z,49.78
2024-02-15T11:37:49.009Z,48.63
2024-02-15T11:40:01.086Z,49.64
2024-02-15T11:42:30.125Z,48.37
2024-02-15T11:44:33.702Z,48.25
2024-02-15T11:46:40.200Z,47.35
2024-02-15T11:48:42.457Z,47.59
2024-02-15T11:50:46.080Z,47.36
2024-02-15T11:52:50.049Z,47.49
2024-02-15T11:54:52.823Z,45.61
2024-02-15T11:57:06.234Z,45.11
2024-02-15T11:59:09.477Z,45.44
2024-02-15T12:01:31.738Z,45.38
2024-02-15T12:04:00.989Z,45.81
2024-02-15T12:06:28.427Z,45.37
2024-02-15T12:08:49.141Z,45.84
2024-02-15T12:11:17.338Z,45.91
2024-02-15T12:13:37.817Z,45.24
2024-02-15T12:15:58.238Z,46.24
2024-02-15T12:18:33.644Z,46.15
2024-02-15T12:20:38.212Z,45.88
2024-02-15T12:22:43.945Z,45.74
2024-02-15T12:24:47.813Z,45.77
2024-02-15T12:26:51.913Z,45.09
2024-02-15T12:28:57.293Z,44.79
2024-02-15T12:31:00.225Z,45.52
2024-02-15T12:33:11.982Z,44.93
2024-02-15T12:35:18.566Z,45.33
2024-02-15T12:37:24.863Z,45.73
2024-02-15T12:39:26.931Z,45.35
2024-02-15T12:41:32.036Z,46.82
2024-02-15T12:43:35.369Z,46.14
2024-02-15T12:45:39.590Z,45.20
2024-02-15T12:47:42.858Z,44.73
2024-02-15T12:49:45.743Z,45.52
2024-02-15T12:51:52.453Z,44.80
2024-02-15T12:54:10.730Z,43.98
2024-02-15T12:56:22.262Z,44.89
2024-02-15T12:58:27.554Z,44.55
2024-02-15T13:00:32.579Z,44.28
2024-02-15T13:02:35.771Z,43.51
2024-02-15T13:04:39.511Z,44.33
2024-02-15T13:06:42.681Z,43.40
2024-02-15T13:08:49.802Z,43.91
2024-02-15T13:10:54.100Z,44.24
2024-02-15T13:12:58.720Z,43.60
2024-02-15T13:15:00.835Z,43.93
2024-02-15T13:17:04.846Z,43.96
2024-02-15T13:19:08.441Z,44.32
2024-02-15T13:21:11.745Z,43.48
2024-02-15T13:23:20.782Z,43.05
2024-02-15T13:25:23.890Z,43.85
2024-02-15T13:27:28.048Z,44.18
2024-02-15T13:29:30.758Z,44.64
2024-02-15T13:31:36.016Z,44.43
2024-02-15T13:33:39.231Z,44.57
2024-02-15T13:35:45.396Z,44.52
2024-02-15T13:37:50.881Z,43.63
2024-02-15T13:39:53.890Z,43.76
2024-02-15T13:41:57.379Z,44.10
2024-02-15T13:44:01.563Z,43.90
2024-02-15T13:46:04.402Z,44.11
2024-02-15T13:48:08.980Z,44.25
2024-02-15T13:50:15.397Z,43.88
2024-02-15T13:52:18.261Z,43.38
2024-02-15T13:54:20.130Z,43.90
2024-02-15T13:56:23.152Z,43.70
2024-02-15T13:58:25.981Z,44.01
2024-02-15T14:00:34.468Z,43.89
2024-02-15T14:02:37.644Z,43.79
2024-02-15T14:04:40.626Z,44.44
2024-02-15T14:06:45.337Z,44.92
2024-02-15T14:08:48.574Z,44.78
2024-02-15T14:10:51.987Z,45.22
2024-02-15T14:12:59.267Z,45.25
2024-02-15T14:15:02.166Z,45.55
2024-02-15T14:17:06.544Z,45.52
2024-02-15T14:19:09.990Z,45.51
2024-02-15T14:21:17.858Z,45.32
2024-02-15T14:23:20.654Z,45.28
2024-02-15T14:25:23.665Z,44.97
2024-02-15T14:27:25.508Z,45.20
2024-02-15T14:29:34.116Z,45.16
2024-02-15T14:31:54.157Z,45.02
2024-02-15T14:33:57.819Z,45.27
2024-02-15T14:36:01.307Z,45.14
2024-02-15T14:38:07.315Z,45.50
2024-02-15T14:40:10.364Z,44.99
2024-02-15T14:44:19.508Z,44.81
2024-02-15T14:46:22.194Z,45.01
2024-02-15T14:48:25.738Z,44.94
2024-02-15T14:50:30.121Z,45.60
2024-02-15T14:52:33.070Z,45.45
2024-02-15T14:54:37.443Z,45.82
2024-02-15T14:56:41.364Z,45.77
2024-02-15T14:58:44.742Z,46.03
2024-02-15T15:00:48.777Z,46.08
2024-02-15T15:02:52.013Z,46.42
2024-02-15T15:04:59.038Z,46.22
2024-02-15T15:07:20.624Z,46.45
2024-02-15T15:09:41.355Z,46.83
2024-02-15T15:12:01.886Z,46.86
2024-02-15T15:14:06.907Z,47.29
2024-02-15T15:16:15.280Z,49.60
2024-02-15T15:18:17.209Z,46.92
2024-02-15T15:20:20.988Z,47.45
2024-02-15T15:22:25.089Z,47.63
2024-02-15T15:24:27.920Z,47.85
2024-02-15T15:26:32.453Z,47.52
2024-02-15T15:28:36.863Z,48.00
2024-02-15T15:30:39.673Z,48.68
2024-02-15T15:32:42.573Z,48.71
2024-02-15T15:34:45.767Z,49.04
2024-02-15T15:36:49.272Z,49.07
2024-02-15T15:38:53.306Z,48.99
2024-02-15T15:40:56.093Z,49.49
2024-02-15T15:42:58.791Z,49.28
2024-02-15T15:45:01.554Z,49.75
2024-02-15T15:47:06.088Z,49.94
2024-02-15T15:49:09.083Z,49.92
2024-02-15T15:51:12.024Z,49.65
2024-02-15T15:53:14.942Z,49.97
2024-02-15T15:55:20.485Z,50.22
2024-02-15T15:57:22.759Z,51.54
2024-02-15T15:59:25.597Z,51.78
2024-02-15T16:01:29.831Z,52.14
2024-02-15T16:03:33.048Z,52.05
2024-02-15T16:05:35.957Z,52.72
2024-02-15T16:07:39.041Z,52.09
2024-02-15T16:09:43.767Z,52.37
2024-02-15T16:11:48.862Z,52.83
2024-02-15T16:13:51.630Z,53.89
2024-02-15T16:15:56.098Z,54.78
2024-02-15T16:17:59.512Z,55.08
2024-02-15T16:20:05.697Z,56.09
2024-02-15T16:22:08.570Z,56.48
2024-02-15T16:24:12.852Z,57.30
2024-02-15T16:26:15.649Z,58.27
2024-02-15T16:28:19.780Z,58.32
2024-02-15T16:30:22.715Z,58.83
2024-02-15T16:32:24.655Z,58.75
2024-02-15T16:34:27.668Z,58.85
2024-02-15T16:36:30.498Z,59.25
2024-02-15T16:38:34.425Z,59.18
2024-02-15T16:40:37.130Z,59.26
2024-02-15T16:42:43.535Z,59.29
2024-02-15T16:44:48.505Z,58.90
2024-02-15T16:46:50.368Z,59.31
2024-02-15T16:48:53.970Z,59.33
2024-02-15T16:50:59.054Z,59.28
2024-02-15T16:53:02.138Z,59.43
2024-02-15T16:55:07.041Z,59.17
2024-02-15T16:57:15.302Z,59.42
2024-02-15T16:59:19.815Z,59.35
2024-02-15T17:01:23.999Z,59.67
2024-02-15T17:03:27.173Z,59.35
2024-02-15T17:05:30.506Z,59.25
2024-02-15T17:07:33.273Z,59.37
2024-02-15T17:09:36.697Z,59.49
2024-02-15T17:11:40.995Z,59.37
2024-02-15T17:13:45.318Z,59.28
2024-02-15T17:15:48.046Z,59.96
2024-02-15T17:17:51.839Z,59.84
2024-02-15T17:19:54.719Z,59.92
2024-02-15T17:21:57.442Z,59.55
2024-02-15T17:24:00.325Z,60.07
2024-02-15T17:26:05.843Z,59.92
2024-02-15T17:28:10.147Z,60.35
2024-02-15T17:30:13.407Z,60.20
2024-02-15T17:32:16.511Z,60.53
2024-02-15T17:34:21.431Z,60.48
2024-02-15T17:36:24.899Z,60.93
2024-02-15T17:38:27.681Z,60.58
2024-02-15T17:40:30.725Z,61.10
2024-02-15T17:42:32.629Z,60.88
2024-02-15T17:44:35.418Z,60.60
2024-02-15T17:46:38.816Z,60.55
2024-02-15T17:48:42.690Z,60.18
2024-02-15T17:50:46.998Z,60.07
2024-02-15T17:52:49.812Z,59.96
2024-02-15T17:54:52.822Z,60.48
2024-02-15T17:56:56.148Z,60.28
2024-02-15T17:58:58.000Z,60.65
2024-02-15T18:01:00.803Z,60.76
2024-02-15T18:03:02.621Z,61.17
2024-02-15T18:05:08.624Z,61.32
2024-02-15T18:07:14.871Z,61.15
2024-02-15T18:09:18.875Z,61.55
2024-02-15T18:11:22.249Z,61.47
2024-02-15T18:13:25.267Z,61.73
2024-02-15T18:15:33.315Z,61.24
2024-02-15T18:17:36.101Z,61.72
2024-02-15T18:19:39.158Z,61.34
2024-02-15T18:21:45.530Z,61.84
2024-02-15T18:23:49.631Z,61.96
2024-02-15T18:25:54.579Z,61.91
2024-02-15T18:27:57.566Z,61.79
2024-02-15T18:30:00.607Z,62.39
2024-02-15T18:32:03.580Z,62.37
2024-02-15T18:34:09.902Z,62.03
2024-02-15T18:36:13.267Z,62.16
2024-02-15T18:38:16.753Z,62.06
2024-02-15T18:40:25.121Z,62.06
2024-02-15T18:42:28.711Z,62.35
2024-02-15T18:44:31.450Z,62.34
2024-02-15T18:46:41.511Z,62.10
2024-02-15T18:48:45.167Z,61.79
2024-02-15T18:50:48.749Z,62.21
2024-02-15T18:52:51.983Z,62.44
2024-02-15T18:54:58.177Z,62.76
2024-02-15T18:57:02.620Z,62.64
2024-02-15T18:59:07.317Z,62.97
2024-02-15T19:01:11.278Z,63.15
2024-02-15T19:03:14.153Z,63.75
2024-02-15T19:05:16.208Z,63.92
2024-02-15T19:07:19.122Z,63.82
2024-02-15T19:09:21.859Z,64.12
2024-02-15T19:11:27.555Z,64.21
2024-02-15T19:13:31.735Z,63.97
2024-02-15T19:15:34.539Z,63.74
2024-02-15T19:17:38.887Z,64.20
2024-02-15T19:19:41.717Z,63.77
2024-02-15T19:21:44.604Z,63.59
2024-02-15T19:23:47.400Z,64.15
2024-02-15T19:25:50.309Z,63.76
2024-02-15T19:27:55.156Z,63.77
2024-02-15T19:29:59.475Z,64.08
2024-02-15T19:32:02.243Z,64.40
2024-02-15T19:34:05.285Z,63.85
2024-02-15T19:36:09.304Z,64.49
2024-02-15T19:38:12.402Z,64.14
2024-02-15T19:40:18.985Z,64.63
2024-02-15T19:42:23.139Z,64.24
2024-02-15T19:44:26.165Z,64.29
2024-02-15T19:46:33.983Z,64.16
2024-02-15T19:48:36.899Z,64.31
2024-02-15T19:50:39.954Z,64.76
2024-02-15T19:52:43.543Z,64.08
2024-02-15T19:54:46.983Z,64.17
2024-02-15T19:56:50.060Z,64.53
2024-02-15T19:58:56.038Z,64.34
2024-02-15T20:00:58.880Z,64.44
2024-02-15T20:03:05.637Z,64.61
2024-02-15T20:05:09.589Z,64.81
2024-02-15T20:07:12.604Z,64.82
2024-02-15T20:09:18.380Z,65.11
2024-02-15T20:11:27.020Z,64.96
2024-02-15T20:13:29.920Z,65.47
2024-02-15T20:15:34.307Z,65.13
2024-02-15T20:17:36.510Z,65.40
2024-02-15T20:19:40.795Z,65.79
2024-02-15T20:21:43.687Z,65.27
2024-02-15T20:23:46.912Z,65.70
2024-02-15T20:25:49.757Z,65.74
2024-02-15T20:27:54.120Z,65.85
2024-02-15T20:29:57.075Z,65.04
2024-02-15T20:32:00.703Z,65.04
2024-02-15T20:34:05.090Z,64.76
2024-02-15T20:36:10.015Z,64.65
2024-02-15T20:38:17.755Z,64.65
2024-02-15T20:40:20.964Z,64.76
2024-02-15T20:42:24.131Z,64.53
2024-02-15T20:44:27.249Z,64.82
2024-02-15T20:46:30.884Z,64.42
2024-02-15T20:48:33.826Z,64.82
2024-02-15T20:50:36.860Z,64.68
2024-02-15T20:52:41.063Z,63.99
2024-02-15T20:54:45.614Z,64.26
2024-02-15T20:56:49.858Z,64.02
2024-02-15T20:58:52.781Z,64.40
2024-02-15T21:01:03.690Z,64.12
2024-02-15T21:03:07.889Z,64.04
2024-02-15T21:05:10.478Z,63.81
2024-02-15T21:07:13.739Z,64.00
2024-02-15T21:09:45.454Z,63.46
2024-02-15T21:14:44.825Z,62.99
2024-02-15T21:17:08.873Z,63.06
2024-02-15T21:19:12.983Z,63.32
2024-02-15T21:21:16.613Z,62.87
2024-02-15T21:23:19.592Z,62.94
2024-02-15T21:25:23.853Z,62.82
2024-02-15T21:27:25.781Z,62.80
2024-02-15T21:29:28.533Z,62.95
2024-02-15T21:31:31.400Z,62.90
2024-02-15T21:33:35.075Z,62.70
2024-02-15T21:35:37.948Z,63.41
2024-02-15T21:37:40.695Z,62.19
2024-02-15T21:39:43.768Z,62.50
2024-02-15T21:41:49.645Z,62.49
2024-02-15T21:43:52.500Z,62.57
2024-02-15T21:45:58.363Z,62.89
2024-02-15T21:48:04.309Z,63.03
2024-02-15T21:50:08.128Z,62.77
2024-02-15T21:52:11.498Z,62.59
2024-02-15T21:54:15.637Z,62.50
2024-02-15T21:56:20.141Z,62.13
2024-02-15T21:58:24.369Z,62.36
2024-02-15T22:00:26.829Z,61.65
2024-02-15T22:02:29.815Z,61.30
2024-02-15T22:04:31.646Z,61.07
2024-02-15T22:06:34.616Z,61.20
2024-02-15T22:08:37.478Z,61.39
2024-02-15T22:10:44.243Z,61.17
2024-02-15T22:12:47.082Z,61.42
2024-02-15T22:14:53.802Z,60.83
2024-02-15T22:16:56.813Z,61.43
2024-02-15T22:19:01.134Z,60.82
2024-02-15T22:21:05.245Z,60.93
2024-02-15T22:23:08.486Z,60.70
2024-02-15T22:25:11.796Z,60.61
2024-02-15T22:27:16.426Z,60.70
2024-02-15T22:29:19.787Z,60.79
2024-02-15T22:31:24.409Z,60.11
2024-02-15T22:33:28.377Z,60.52
2024-02-15T22:35:31.255Z,60.09
2024-02-15T22:37:34.808Z,60.29
2024-02-15T22:39:37.712Z,60.24
2024-02-15T22:41:40.713Z,60.03
2024-02-15T22:43:45.578Z,60.25
2024-02-15T22:45:49.090Z,59.94
2024-02-15T22:47:53.427Z,60.19
2024-02-15T22:49:57.078Z,60.04
2024-02-15T22:52:01.919Z,59.89
2024-02-15T22:54:05.397Z,59.78
2024-02-15T22:56:10.317Z,60.04
2024-02-15T22:58:13.217Z,60.60
2024-02-15T23:00:15.939Z,60.36
2024-02-15T23:02:18.860Z,60.30
2024-02-15T23:04:23.084Z,60.28
2024-02-15T23:06:26.045Z,59.93
2024-02-15T23:08:29.342Z,59.75
2024-02-15T23:10:32.162Z,59.87
2024-02-15T23:12:36.993Z,59.33
2024-02-15T23:14:39.895Z,59.10
2024-02-15T23:16:43.241Z,58.75
2024-02-15T23:18:46.314Z,58.85
2024-02-15T23:20:51.339Z,58.59
2024-02-15T23:22:54.176Z,58.83
2024-02-15T23:24:59.873Z,58.64
2024-02-15T23:27:03.956Z,58.52
2024-02-15T23:29:07.363Z,58.40
2024-02-15T23:31:13.460Z,59.08
2024-02-15T23:33:20.131Z,58.93
2024-02-15T23:35:31.751Z,58.46
2024-02-15T23:37:53.351Z,58.33
2024-02-15T23:40:13.741Z,58.27
2024-02-15T23:42:16.906Z,58.66
2024-02-15T23:44:21.089Z,58.94
2024-02-15T23:46:23.899Z,58.73
2024-02-15T23:48:28.079Z,58.58
2024-02-15T23:50:33.784Z,58.67
2024-02-15T23:52:38.720Z,58.25
2024-02-15T23:54:41.676Z,58.28
2024-02-15T23:56:44.947Z,58.15
2024-02-15T23:58:47.941Z,57.75
